sensor_id;sensor_type;location;lat;lon;timestamp;pressure;altitude;pressure_sealevel;temperature;humidity
53874;BME280;62246;50.938;4.058;2022-09-12T00:00:49;101755.25;;;13.16;95.36
53874;BME280;62246;50.938;4.058;2022-09-12T00:03:15;101752.59;;;13.16;95.71
53874;BME280;62246;50.938;4.058;2022-09-12T00:05:44;101752.59;;;13.16;95.21
53874;BME280;62246;50.938;4.058;2022-09-12T00:08:11;101745.47;;;13.16;95.45
53874;BME280;62246;50.938;4.058;2022-09-12T00:10:41;101752.69;;;13.14;95.27
53874;BME280;62246;50.938;4.058;2022-09-12T00:13:07;101741.63;;;13.21;94.66
53874;BME280;62246;50.938;4.058;2022-09-12T00:15:40;101735.44;;;13.20;94.20
53874;BME280;62246;50.938;4.058;2022-09-12T00:18:08;101739.53;;;13.13;94.99
53874;BME280;62246;50.938;4.058;2022-09-12T00:20:34;101734.44;;;13.10;95.13
53874;BME280;62246;50.938;4.058;2022-09-12T00:22:59;101730.38;;;13.04;95.10
53874;BME280;62246;50.938;4.058;2022-09-12T00:25:25;101730.78;;;13.24;93.50
53874;BME280;62246;50.938;4.058;2022-09-12T00:27:51;101719.28;;;13.23;92.91
53874;BME280;62246;50.938;4.058;2022-09-12T00:30:16;101726.63;;;13.20;93.43
53874;BME280;62246;50.938;4.058;2022-09-12T00:32:41;101721.03;;;13.11;94.61
53874;BME280;62246;50.938;4.058;2022-09-12T00:35:07;101716.25;;;13.04;94.81
53874;BME280;62246;50.938;4.058;2022-09-12T00:37:33;101721.69;;;13.02;94.71
53874;BME280;62246;50.938;4.058;2022-09-12T00:39:59;101711.88;;;13.15;93.98
53874;BME280;62246;50.938;4.058;2022-09-12T00:42:24;101710.41;;;13.11;93.30
53874;BME280;62246;50.938;4.058;2022-09-12T00:44:51;101708.50;;;13.00;94.48
53874;BME280;62246;50.938;4.058;2022-09-12T00:47:27;101710.84;;;12.92;95.33
53874;BME280;62246;50.938;4.058;2022-09-12T00:50:03;101707.34;;;12.92;94.95
53874;BME280;62246;50.938;4.058;2022-09-12T00:55:10;101707.91;;;12.71;96.39
53874;BME280;62246;50.938;4.058;2022-09-12T00:58:08;101711.28;;;12.86;94.66
53874;BME280;62246;50.938;4.058;2022-09-12T01:00:35;101706.81;;;12.99;93.66
53874;BME280;62246;50.938;4.058;2022-09-12T01:03:05;101712.66;;;12.92;94.72
53874;BME280;62246;50.938;4.058;2022-09-12T01:05:34;101709.59;;;12.85;95.07
53874;BME280;62246;50.938;4.058;2022-09-12T01:08:04;101693.31;;;12.90;93.78
53874;BME280;62246;50.938;4.058;2022-09-12T01:10:30;101700.03;;;12.82;94.78
53874;BME280;62246;50.938;4.058;2022-09-12T01:12:58;101703.00;;;12.78;95.47
53874;BME280;62246;50.938;4.058;2022-09-12T01:15:24;101688.09;;;12.88;94.47
53874;BME280;62246;50.938;4.058;2022-09-12T01:31:53;101688.28;;;12.61;94.89
53874;BME280;62246;50.938;4.058;2022-09-12T01:34:25;101686.88;;;12.55;95.80
53874;BME280;62246;50.938;4.058;2022-09-12T01:37:02;101683.25;;;12.56;96.49
53874;BME280;62246;50.938;4.058;2022-09-12T01:40:02;101676.69;;;12.49;96.42
53874;BME280;62246;50.938;4.058;2022-09-12T01:45:28;101658.00;;;12.50;95.99
53874;BME280;62246;50.938;4.058;2022-09-12T01:48:01;101663.72;;;12.44;96.43
53874;BME280;62246;50.938;4.058;2022-09-12T01:50:33;101661.91;;;12.58;95.13
53874;BME280;62246;50.938;4.058;2022-09-12T01:53:07;101666.25;;;12.46;96.61
53874;BME280;62246;50.938;4.058;2022-09-12T01:55:41;101662.44;;;12.50;96.71
53874;BME280;62246;50.938;4.058;2022-09-12T01:58:16;101661.19;;;12.43;96.67
53874;BME280;62246;50.938;4.058;2022-09-12T02:00:52;101658.75;;;12.40;96.88
53874;BME280;62246;50.938;4.058;2022-09-12T02:03:24;101649.59;;;12.31;97.38
53874;BME280;62246;50.938;4.058;2022-09-12T02:06:07;101663.72;;;12.31;97.85
53874;BME280;62246;50.938;4.058;2022-09-12T02:08:39;101656.81;;;12.29;98.42
53874;BME280;62246;50.938;4.058;2022-09-12T02:11:09;101662.25;;;12.40;96.12
53874;BME280;62246;50.938;4.058;2022-09-12T02:13:45;101657.66;;;12.55;95.03
53874;BME280;62246;50.938;4.058;2022-09-12T02:16:17;101653.75;;;12.48;95.38
53874;BME280;62246;50.938;4.058;2022-09-12T02:18:51;101646.53;;;12.37;96.24
53874;BME280;62246;50.938;4.058;2022-09-12T02:21:19;101642.28;;;12.35;96.11
53874;BME280;62246;50.938;4.058;2022-09-12T02:23:50;101639.22;;;12.28;96.17
53874;BME280;62246;50.938;4.058;2022-09-12T02:26:21;101635.78;;;12.26;96.60
53874;BME280;62246;50.938;4.058;2022-09-12T02:28:47;101641.84;;;12.15;97.69
53874;BME280;62246;50.938;4.058;2022-09-12T02:31:21;101642.91;;;12.25;96.91
53874;BME280;62246;50.938;4.058;2022-09-12T02:36:57;101645.06;;;12.33;95.35
53874;BME280;62246;50.938;4.058;2022-09-12T02:39:25;101643.75;;;12.26;96.76
53874;BME280;62246;50.938;4.058;2022-09-12T02:41:51;101636.13;;;12.21;97.15
53874;BME280;62246;50.938;4.058;2022-09-12T02:44:19;101644.28;;;12.18;97.00
53874;BME280;62246;50.938;4.058;2022-09-12T02:46:51;101624.97;;;12.16;96.61
53874;BME280;62246;50.938;4.058;2022-09-12T02:49:18;101630.69;;;12.10;96.69
53874;BME280;62246;50.938;4.058;2022-09-12T02:51:45;101627.28;;;12.08;96.62
53874;BME280;62246;50.938;4.058;2022-09-12T02:54:11;101619.66;;;12.03;96.85
53874;BME280;62246;50.938;4.058;2022-09-12T02:56:42;101616.56;;;11.96;97.63
53874;BME280;62246;50.938;4.058;2022-09-12T02:59:10;101614.19;;;11.92;97.82
53874;BME280;62246;50.938;4.058;2022-09-12T03:02:03;101612.88;;;11.99;96.23
53874;BME280;62246;50.938;4.058;2022-09-12T03:09:38;101610.31;;;11.97;97.43
53874;BME280;62246;50.938;4.058;2022-09-12T03:17:41;101613.25;;;11.93;97.89
53874;BME280;62246;50.938;4.058;2022-09-12T03:20:10;101611.91;;;12.00;96.42
53874;BME280;62246;50.938;4.058;2022-09-12T03:22:49;101612.78;;;12.13;95.24
53874;BME280;62246;50.938;4.058;2022-09-12T03:25:33;101625.50;;;12.21;94.60
53874;BME280;62246;50.938;4.058;2022-09-12T03:28:05;101633.06;;;12.14;95.35
53874;BME280;62246;50.938;4.058;2022-09-12T03:30:43;101627.63;;;12.03;97.23
53874;BME280;62246;50.938;4.058;2022-09-12T03:33:14;101631.34;;;12.00;97.43
53874;BME280;62246;50.938;4.058;2022-09-12T03:35:40;101628.78;;;11.99;96.59
53874;BME280;62246;50.938;4.058;2022-09-12T03:38:06;101622.38;;;11.89;96.51
53874;BME280;62246;50.938;4.058;2022-09-12T03:40:36;101623.66;;;11.83;96.79
53874;BME280;62246;50.938;4.058;2022-09-12T03:43:02;101619.06;;;11.85;96.94
53874;BME280;62246;50.938;4.058;2022-09-12T03:45:27;101617.59;;;11.81;97.05
53874;BME280;62246;50.938;4.058;2022-09-12T03:47:53;101622.06;;;11.80;96.91
53874;BME280;62246;50.938;4.058;2022-09-12T03:50:18;101618.91;;;12.01;95.73
53874;BME280;62246;50.938;4.058;2022-09-12T03:52:44;101618.19;;;11.99;95.42
53874;BME280;62246;50.938;4.058;2022-09-12T03:55:09;101619.50;;;11.92;96.30
53874;BME280;62246;50.938;4.058;2022-09-12T03:57:35;101621.09;;;11.81;96.97
53874;BME280;62246;50.938;4.058;2022-09-12T04:00:00;101619.50;;;11.79;97.08
53874;BME280;62246;50.938;4.058;2022-09-12T04:02:29;101616.19;;;11.75;97.42
53874;BME280;62246;50.938;4.058;2022-09-12T04:04:54;101611.63;;;11.77;97.39
53874;BME280;62246;50.938;4.058;2022-09-12T04:07:19;101608.97;;;11.77;97.25
53874;BME280;62246;50.938;4.058;2022-09-12T04:09:45;101609.41;;;11.71;97.17
53874;BME280;62246;50.938;4.058;2022-09-12T04:12:11;101613.13;;;11.69;97.47
53874;BME280;62246;50.938;4.058;2022-09-12T04:14:38;101615.94;;;11.65;98.45
53874;BME280;62246;50.938;4.058;2022-09-12T04:17:03;101616.06;;;11.64;98.79
53874;BME280;62246;50.938;4.058;2022-09-12T04:19:29;101607.06;;;11.66;99.13
53874;BME280;62246;50.938;4.058;2022-09-12T04:21:54;101605.16;;;11.69;98.49
53874;BME280;62246;50.938;4.058;2022-09-12T04:24:19;101604.84;;;11.60;98.42
53874;BME280;62246;50.938;4.058;2022-09-12T04:26:45;101600.69;;;11.69;97.40
53874;BME280;62246;50.938;4.058;2022-09-12T04:29:10;101604.00;;;11.73;96.18
53874;BME280;62246;50.938;4.058;2022-09-12T04:31:37;101603.88;;;11.74;95.88
53874;BME280;62246;50.938;4.058;2022-09-12T04:34:02;101606.88;;;11.70;97.14
53874;BME280;62246;50.938;4.058;2022-09-12T04:36:30;101608.88;;;11.66;97.90
53874;BME280;62246;50.938;4.058;2022-09-12T04:38:55;101607.38;;;11.62;97.26
53874;BME280;62246;50.938;4.058;2022-09-12T04:41:26;101610.03;;;11.62;97.21
53874;BME280;62246;50.938;4.058;2022-09-12T04:43:58;101608.44;;;11.59;97.33
53874;BME280;62246;50.938;4.058;2022-09-12T04:46:26;101619.59;;;11.64;96.63
53874;BME280;62246;50.938;4.058;2022-09-12T04:48:51;101616.50;;;11.58;97.44
53874;BME280;62246;50.938;4.058;2022-09-12T04:51:20;101611.63;;;11.64;96.41
53874;BME280;62246;50.938;4.058;2022-09-12T04:53:48;101616.28;;;11.61;96.34
53874;BME280;62246;50.938;4.058;2022-09-12T04:56:14;101616.56;;;11.56;97.04
53874;BME280;62246;50.938;4.058;2022-09-12T04:58:39;101611.28;;;11.56;96.66
53874;BME280;62246;50.938;4.058;2022-09-12T05:01:08;101614.69;;;11.58;95.70
53874;BME280;62246;50.938;4.058;2022-09-12T05:03:35;101605.78;;;11.59;95.80
53874;BME280;62246;50.938;4.058;2022-09-12T05:06:04;101618.09;;;11.60;95.05
53874;BME280;62246;50.938;4.058;2022-09-12T05:08:30;101616.34;;;11.46;96.45
53874;BME280;62246;50.938;4.058;2022-09-12T05:10:55;101613.03;;;11.43;97.19
53874;BME280;62246;50.938;4.058;2022-09-12T05:13:21;101613.69;;;11.46;97.85
53874;BME280;62246;50.938;4.058;2022-09-12T05:15:54;101609.94;;;11.36;97.65
53874;BME280;62246;50.938;4.058;2022-09-12T05:18:19;101610.06;;;11.34;97.36
53874;BME280;62246;50.938;4.058;2022-09-12T05:20:45;101612.91;;;11.31;97.51
53874;BME280;62246;50.938;4.058;2022-09-12T05:23:11;101606.13;;;11.27;97.75
53874;BME280;62246;50.938;4.058;2022-09-12T05:25:36;101610.44;;;11.28;97.62
53874;BME280;62246;50.938;4.058;2022-09-12T05:28:02;101615.22;;;11.23;97.95
53874;BME280;62246;50.938;4.058;2022-09-12T05:30:27;101610.66;;;11.25;98.50
53874;BME280;62246;50.938;4.058;2022-09-12T05:32:52;101613.19;;;11.27;98.59
53874;BME280;62246;50.938;4.058;2022-09-12T05:35:18;101615.75;;;11.28;98.50
53874;BME280;62246;50.938;4.058;2022-09-12T05:37:43;101614.91;;;11.28;97.49
53874;BME280;62246;50.938;4.058;2022-09-12T05:40:09;101612.38;;;11.26;97.46
53874;BME280;62246;50.938;4.058;2022-09-12T05:42:34;101618.31;;;11.30;97.05
53874;BME280;62246;50.938;4.058;2022-09-12T05:45:00;101613.19;;;11.27;97.59
53874;BME280;62246;50.938;4.058;2022-09-12T05:47:26;101608.66;;;11.29;97.88
53874;BME280;62246;50.938;4.058;2022-09-12T05:49:51;101612.25;;;11.28;97.86
53874;BME280;62246;50.938;4.058;2022-09-12T05:52:17;101622.03;;;11.27;98.08
53874;BME280;62246;50.938;4.058;2022-09-12T05:54:44;101613.41;;;11.24;98.37
53874;BME280;62246;50.938;4.058;2022-09-12T05:57:11;101611.50;;;11.26;97.98
53874;BME280;62246;50.938;4.058;2022-09-12T05:59:37;101607.91;;;11.27;98.33
53874;BME280;62246;50.938;4.058;2022-09-12T06:02:02;101610.44;;;11.28;97.87
53874;BME280;62246;50.938;4.058;2022-09-12T06:04:28;101608.91;;;11.39;97.46
53874;BME280;62246;50.938;4.058;2022-09-12T06:06:53;101607.00;;;11.41;97.52
53874;BME280;62246;50.938;4.058;2022-09-12T06:09:19;101608.50;;;11.45;97.40
53874;BME280;62246;50.938;4.058;2022-09-12T06:11:45;101611.69;;;11.50;97.74
53874;BME280;62246;50.938;4.058;2022-09-12T06:14:12;101615.72;;;11.56;98.08
53874;BME280;62246;50.938;4.058;2022-09-12T06:16:38;101610.03;;;11.62;98.64
53874;BME280;62246;50.938;4.058;2022-09-12T06:19:06;101607.69;;;11.70;98.01
53874;BME280;62246;50.938;4.058;2022-09-12T06:21:33;101611.00;;;11.87;97.39
53874;BME280;62246;50.938;4.058;2022-09-12T06:23:59;101595.34;;;11.96;96.71
53874;BME280;62246;50.938;4.058;2022-09-12T06:26:26;101605.88;;;12.11;96.40
53874;BME280;62246;50.938;4.058;2022-09-12T06:28:53;101607.34;;;12.28;96.16
53874;BME280;62246;50.938;4.058;2022-09-12T06:31:22;101619.88;;;12.39;96.35
53874;BME280;62246;50.938;4.058;2022-09-12T06:33:50;101607.00;;;12.45;96.13
53874;BME280;62246;50.938;4.058;2022-09-12T06:36:25;101607.53;;;12.50;97.52
53874;BME280;62246;50.938;4.058;2022-09-12T06:38:53;101609.72;;;12.57;97.52
53874;BME280;62246;50.938;4.058;2022-09-12T06:41:20;101605.47;;;12.67;97.56
53874;BME280;62246;50.938;4.058;2022-09-12T06:43:46;101604.91;;;12.75;97.30
53874;BME280;62246;50.938;4.058;2022-09-12T06:46:11;101614.44;;;12.90;97.40
53874;BME280;62246;50.938;4.058;2022-09-12T06:48:37;101614.50;;;13.02;97.91
53874;BME280;62246;50.938;4.058;2022-09-12T06:51:05;101610.72;;;13.17;97.40
53874;BME280;62246;50.938;4.058;2022-09-12T06:53:34;101612.69;;;13.39;97.83
53874;BME280;62246;50.938;4.058;2022-09-12T06:56:20;101614.28;;;13.53;97.69
53874;BME280;62246;50.938;4.058;2022-09-12T06:58:48;101610.84;;;13.64;97.58
53874;BME280;62246;50.938;4.058;2022-09-12T07:01:16;101611.59;;;13.77;96.99
53874;BME280;62246;50.938;4.058;2022-09-12T07:03:46;101613.66;;;13.85;97.57
53874;BME280;62246;50.938;4.058;2022-09-12T07:06:14;101615.50;;;13.96;96.85
53874;BME280;62246;50.938;4.058;2022-09-12T07:08:40;101597.75;;;14.08;96.48
53874;BME280;62246;50.938;4.058;2022-09-12T07:11:21;101600.41;;;14.19;96.53
53874;BME280;62246;50.938;4.058;2022-09-12T07:13:50;101594.97;;;14.32;96.14
53874;BME280;62246;50.938;4.058;2022-09-12T07:16:15;101593.63;;;14.38;95.76
53874;BME280;62246;50.938;4.058;2022-09-12T07:18:41;101597.25;;;14.48;95.43
53874;BME280;62246;50.938;4.058;2022-09-12T07:21:10;101592.91;;;14.58;94.87
53874;BME280;62246;50.938;4.058;2022-09-12T07:23:36;101593.16;;;14.66;93.68
53874;BME280;62246;50.938;4.058;2022-09-12T07:26:03;101595.06;;;14.76;93.22
53874;BME280;62246;50.938;4.058;2022-09-12T07:28:31;101603.06;;;14.87;93.17
53874;BME280;62246;50.938;4.058;2022-09-12T07:30:57;101600.63;;;14.95;90.88
53874;BME280;62246;50.938;4.058;2022-09-12T07:33:26;101607.00;;;15.04;91.22
53874;BME280;62246;50.938;4.058;2022-09-12T07:35:52;101601.78;;;15.14;90.88
53874;BME280;62246;50.938;4.058;2022-09-12T07:38:19;101603.47;;;15.15;90.26
53874;BME280;62246;50.938;4.058;2022-09-12T07:40:45;101605.63;;;15.21;90.12
53874;BME280;62246;50.938;4.058;2022-09-12T07:43:11;101605.13;;;15.27;90.31
53874;BME280;62246;50.938;4.058;2022-09-12T07:45:36;101607.66;;;15.29;89.75
53874;BME280;62246;50.938;4.058;2022-09-12T07:48:02;101604.63;;;15.33;89.07
53874;BME280;62246;50.938;4.058;2022-09-12T07:50:28;101610.97;;;15.42;89.05
53874;BME280;62246;50.938;4.058;2022-09-12T07:52:53;101607.44;;;15.53;88.61
53874;BME280;62246;50.938;4.058;2022-09-12T07:55:20;101611.88;;;15.64;87.85
53874;BME280;62246;50.938;4.058;2022-09-12T07:57:48;101613.63;;;15.75;87.61
53874;BME280;62246;50.938;4.058;2022-09-12T08:00:15;101600.00;;;15.89;86.63
53874;BME280;62246;50.938;4.058;2022-09-12T08:02:41;101611.91;;;16.06;86.18
53874;BME280;62246;50.938;4.058;2022-09-12T08:11:49;101602.84;;;16.28;84.02
53874;BME280;62246;50.938;4.058;2022-09-12T08:14:15;101604.00;;;16.36;82.49
53874;BME280;62246;50.938;4.058;2022-09-12T08:16:41;101594.59;;;16.41;82.54
53874;BME280;62246;50.938;4.058;2022-09-12T08:19:07;101592.81;;;16.52;82.58
53874;BME280;62246;50.938;4.058;2022-09-12T08:21:32;101599.72;;;16.54;83.23
53874;BME280;62246;50.938;4.058;2022-09-12T08:24:03;101598.19;;;16.61;82.37
53874;BME280;62246;50.938;4.058;2022-09-12T08:26:30;101598.75;;;16.65;82.62
53874;BME280;62246;50.938;4.058;2022-09-12T08:28:57;101601.16;;;16.68;80.06
53874;BME280;62246;50.938;4.058;2022-09-12T08:31:25;101597.09;;;16.74;79.91
53874;BME280;62246;50.938;4.058;2022-09-12T08:33:53;101594.72;;;16.80;80.19
53874;BME280;62246;50.938;4.058;2022-09-12T08:36:21;101598.66;;;16.86;80.29
53874;BME280;62246;50.938;4.058;2022-09-12T08:38:49;101594.63;;;16.92;79.94
53874;BME280;62246;50.938;4.058;2022-09-12T08:48:56;101592.41;;;17.36;77.28
53874;BME280;62246;50.938;4.058;2022-09-12T08:51:24;101587.91;;;17.46;77.69
53874;BME280;62246;50.938;4.058;2022-09-12T08:53:52;101595.78;;;17.48;77.72
53874;BME280;62246;50.938;4.058;2022-09-12T08:56:18;101588.03;;;17.55;77.67
53874;BME280;62246;50.938;4.058;2022-09-12T08:58:45;101597.63;;;17.57;77.57
53874;BME280;62246;50.938;4.058;2022-09-12T09:04:00;101587.41;;;17.80;75.33
53874;BME280;62246;50.938;4.058;2022-09-12T09:06:50;101586.00;;;17.96;76.20
53874;BME280;62246;50.938;4.058;2022-09-12T09:09:31;101590.34;;;18.07;74.48
53874;BME280;62246;50.938;4.058;2022-09-12T09:17:54;101572.06;;;18.30;74.12
53874;BME280;62246;50.938;4.058;2022-09-12T09:20:38;101566.25;;;18.35;72.30
53874;BME280;62246;50.938;4.058;2022-09-12T09:25:50;101561.78;;;18.53;73.18
53874;BME280;62246;50.938;4.058;2022-09-12T09:28:44;101565.72;;;18.59;72.22
53874;BME280;62246;50.938;4.058;2022-09-12T09:31:16;101564.13;;;18.66;72.53
53874;BME280;62246;50.938;4.058;2022-09-12T09:33:42;101567.44;;;18.78;72.71
53874;BME280;62246;50.938;4.058;2022-09-12T09:39:05;101566.19;;;19.00;70.63
53874;BME280;62246;50.938;4.058;2022-09-12T09:44:29;101563.63;;;19.17;70.30
53874;BME280;62246;50.938;4.058;2022-09-12T09:46:56;101555.75;;;19.15;70.12
53874;BME280;62246;50.938;4.058;2022-09-12T09:49:24;101553.44;;;19.20;70.57
53874;BME280;62246;50.938;4.058;2022-09-12T09:51:51;101544.78;;;19.26;70.40
53874;BME280;62246;50.938;4.058;2022-09-12T09:54:20;101534.09;;;19.35;69.79
53874;BME280;62246;50.938;4.058;2022-09-12T09:56:47;101535.75;;;19.54;69.36
53874;BME280;62246;50.938;4.058;2022-09-12T09:59:29;101533.22;;;19.52;67.51
53874;BME280;62246;50.938;4.058;2022-09-12T10:04:37;101517.34;;;19.67;66.69
53874;BME280;62246;50.938;4.058;2022-09-12T10:07:04;101512.28;;;19.82;65.85
53874;BME280;62246;50.938;4.058;2022-09-12T10:09:34;101509.16;;;19.95;67.22
53874;BME280;62246;50.938;4.058;2022-09-12T10:12:23;101513.28;;;20.16;64.99
53874;BME280;62246;50.938;4.058;2022-09-12T10:14:59;101516.19;;;20.30;64.88
53874;BME280;62246;50.938;4.058;2022-09-12T10:17:40;101512.84;;;20.37;63.92
53874;BME280;62246;50.938;4.058;2022-09-12T10:20:28;101497.91;;;20.42;63.14
53874;BME280;62246;50.938;4.058;2022-09-12T10:22:55;101496.91;;;20.52;63.27
53874;BME280;62246;50.938;4.058;2022-09-12T10:25:24;101496.00;;;20.69;63.64
53874;BME280;62246;50.938;4.058;2022-09-12T10:27:55;101495.16;;;20.85;63.26
53874;BME280;62246;50.938;4.058;2022-09-12T10:30:22;101493.47;;;21.01;63.22
53874;BME280;62246;50.938;4.058;2022-09-12T10:32:54;101493.47;;;21.25;63.19
53874;BME280;62246;50.938;4.058;2022-09-12T10:38:00;101484.56;;;21.17;59.11
53874;BME280;62246;50.938;4.058;2022-09-12T10:40:41;101482.50;;;21.35;58.63
53874;BME280;62246;50.938;4.058;2022-09-12T10:46:23;101489.41;;;21.62;58.90
53874;BME280;62246;50.938;4.058;2022-09-12T10:49:13;101485.31;;;21.75;57.37
53874;BME280;62246;50.938;4.058;2022-09-12T10:51:38;101491.34;;;21.85;57.44
53874;BME280;62246;50.938;4.058;2022-09-12T10:54:07;101490.56;;;22.16;57.93
53874;BME280;62246;50.938;4.058;2022-09-12T10:59:28;101485.22;;;22.39;56.11
53874;BME280;62246;50.938;4.058;2022-09-12T11:02:29;101480.03;;;22.29;56.01
53874;BME280;62246;50.938;4.058;2022-09-12T11:05:17;101471.47;;;22.80;54.66
53874;BME280;62246;50.938;4.058;2022-09-12T11:10:23;101478.44;;;22.75;53.53
53874;BME280;62246;50.938;4.058;2022-09-12T11:28:55;101472.94;;;24.41;49.64
53874;BME280;62246;50.938;4.058;2022-09-12T11:34:08;101469.81;;;24.81;47.47
53874;BME280;62246;50.938;4.058;2022-09-12T11:36:50;101461.41;;;24.69;46.96
53874;BME280;62246;50.938;4.058;2022-09-12T11:39:39;101462.09;;;25.27;47.20
53874;BME280;62246;50.938;4.058;2022-09-12T11:42:11;101449.84;;;26.08;44.34
53874;BME280;62246;50.938;4.058;2022-09-12T11:44:42;101448.06;;;27.56;42.27
53874;BME280;62246;50.938;4.058;2022-09-12T11:47:11;101442.88;;;29.21;38.93
53874;BME280;62246;50.938;4.058;2022-09-12T11:49:42;101446.06;;;30.11;35.37
53874;BME280;62246;50.938;4.058;2022-09-12T11:52:12;101439.72;;;32.70;30.75
53874;BME280;62246;50.938;4.058;2022-09-12T11:54:45;101433.94;;;31.27;32.06
53874;BME280;62246;50.938;4.058;2022-09-12T11:59:42;101438.66;;;34.70;28.48
53874;BME280;62246;50.938;4.058;2022-09-12T12:02:18;101433.19;;;31.67;31.29
53874;BME280;62246;50.938;4.058;2022-09-12T12:04:58;101432.91;;;32.38;31.32
53874;BME280;62246;50.938;4.058;2022-09-12T12:07:33;101426.00;;;34.10;29.20
53874;BME280;62246;50.938;4.058;2022-09-12T12:10:01;101426.44;;;36.46;26.26
53874;BME280;62246;50.938;4.058;2022-09-12T12:12:27;101410.31;;;37.36;24.63
53874;BME280;62246;50.938;4.058;2022-09-12T12:14:54;101416.06;;;38.40;23.33
53874;BME280;62246;50.938;4.058;2022-09-12T12:17:22;101410.34;;;38.60;23.09
53874;BME280;62246;50.938;4.058;2022-09-12T12:20:02;101412.31;;;38.25;22.55
53874;BME280;62246;50.938;4.058;2022-09-12T12:22:28;101418.78;;;39.04;22.66
53874;BME280;62246;50.938;4.058;2022-09-12T12:25:05;101418.28;;;38.96;21.78
53874;BME280;62246;50.938;4.058;2022-09-12T12:27:50;101414.75;;;37.22;22.97
53874;BME280;62246;50.938;4.058;2022-09-12T12:37:59;101411.28;;;33.49;28.98
53874;BME280;62246;50.938;4.058;2022-09-12T12:40:26;101409.88;;;35.26;26.03
53874;BME280;62246;50.938;4.058;2022-09-12T12:47:58;101391.19;;;35.33;24.68
53874;BME280;62246;50.938;4.058;2022-09-12T12:50:26;101389.44;;;38.78;22.28
53874;BME280;62246;50.938;4.058;2022-09-12T12:55:24;101391.81;;;40.15;21.01
53874;BME280;62246;50.938;4.058;2022-09-12T12:57:52;101379.72;;;41.92;18.96
53874;BME280;62246;50.938;4.058;2022-09-12T13:03:06;101375.31;;;37.76;23.17
53874;BME280;62246;50.938;4.058;2022-09-12T13:05:45;101369.84;;;34.60;26.40
53874;BME280;62246;50.938;4.058;2022-09-12T13:10:51;101357.97;;;38.69;21.56
53874;BME280;62246;50.938;4.058;2022-09-12T13:13:25;101352.09;;;40.20;20.31
53874;BME280;62246;50.938;4.058;2022-09-12T13:15:52;101343.88;;;38.41;22.35
53874;BME280;62246;50.938;4.058;2022-09-12T13:18:47;101344.91;;;37.37;22.98
53874;BME280;62246;50.938;4.058;2022-09-12T13:21:19;101348.91;;;35.02;27.14
53874;BME280;62246;50.938;4.058;2022-09-12T13:24:02;101337.25;;;34.09;26.90
53874;BME280;62246;50.938;4.058;2022-09-12T13:26:33;101341.50;;;33.95;27.37
53874;BME280;62246;50.938;4.058;2022-09-12T13:29:15;101337.50;;;32.52;29.54
53874;BME280;62246;50.938;4.058;2022-09-12T13:31:43;101347.59;;;32.69;30.13
53874;BME280;62246;50.938;4.058;2022-09-12T13:34:15;101340.22;;;34.02;28.25
53874;BME280;62246;50.938;4.058;2022-09-12T13:45:04;101335.16;;;36.58;23.55
53874;BME280;62246;50.938;4.058;2022-09-12T13:47:38;101320.97;;;38.01;22.18
53874;BME280;62246;50.938;4.058;2022-09-12T13:50:06;101321.09;;;38.25;21.69
53874;BME280;62246;50.938;4.058;2022-09-12T13:52:37;101325.69;;;39.32;20.82
53874;BME280;62246;50.938;4.058;2022-09-12T13:55:22;101321.00;;;37.56;22.08
53874;BME280;62246;50.938;4.058;2022-09-12T13:58:29;101318.84;;;36.93;22.39
53874;BME280;62246;50.938;4.058;2022-09-12T14:03:41;101314.88;;;37.20;23.95
53874;BME280;62246;50.938;4.058;2022-09-12T14:06:26;101306.53;;;36.23;23.41
53874;BME280;62246;50.938;4.058;2022-09-12T14:08:53;101312.00;;;37.40;22.92
53874;BME280;62246;50.938;4.058;2022-09-12T14:11:26;101310.41;;;38.67;21.23
53874;BME280;62246;50.938;4.058;2022-09-12T14:13:52;101297.78;;;37.62;22.27
53874;BME280;62246;50.938;4.058;2022-09-12T14:16:20;101303.38;;;37.92;22.37
53874;BME280;62246;50.938;4.058;2022-09-12T14:18:48;101293.81;;;40.80;18.61
53874;BME280;62246;50.938;4.058;2022-09-12T14:21:32;101297.75;;;40.52;18.72
53874;BME280;62246;50.938;4.058;2022-09-12T14:23:59;101309.47;;;38.53;21.23
53874;BME280;62246;50.938;4.058;2022-09-12T14:26:27;101299.34;;;38.43;21.52
53874;BME280;62246;50.938;4.058;2022-09-12T14:28:58;101283.94;;;36.42;23.30
53874;BME280;62246;50.938;4.058;2022-09-12T14:31:43;101281.25;;;38.26;20.79
53874;BME280;62246;50.938;4.058;2022-09-12T14:34:16;101286.16;;;36.29;23.11
53874;BME280;62246;50.938;4.058;2022-09-12T14:36:47;101280.56;;;37.26;22.18
53874;BME280;62246;50.938;4.058;2022-09-12T14:39:22;101276.59;;;37.92;22.08
53874;BME280;62246;50.938;4.058;2022-09-12T14:41:49;101280.59;;;40.17;19.51
53874;BME280;62246;50.938;4.058;2022-09-12T14:44:23;101268.72;;;40.16;18.97
53874;BME280;62246;50.938;4.058;2022-09-12T14:46:49;101260.94;;;41.02;18.19
53874;BME280;62246;50.938;4.058;2022-09-12T14:49:33;101258.59;;;42.00;17.42
53874;BME280;62246;50.938;4.058;2022-09-12T14:52:02;101252.84;;;42.27;17.12
53874;BME280;62246;50.938;4.058;2022-09-12T14:56:59;101261.38;;;39.54;18.93
53874;BME280;62246;50.938;4.058;2022-09-12T15:04:48;101248.31;;;37.66;21.39
53874;BME280;62246;50.938;4.058;2022-09-12T15:07:31;101241.56;;;37.82;20.61
53874;BME280;62246;50.938;4.058;2022-09-12T15:09:59;101239.44;;;38.57;20.10
53874;BME280;62246;50.938;4.058;2022-09-12T15:12:25;101244.31;;;38.90;20.24
53874;BME280;62246;50.938;4.058;2022-09-12T15:14:50;101249.16;;;39.22;19.35
53874;BME280;62246;50.938;4.058;2022-09-12T15:17:16;101237.50;;;40.24;19.47
53874;BME280;62246;50.938;4.058;2022-09-12T15:19:41;101231.97;;;40.52;18.22
53874;BME280;62246;50.938;4.058;2022-09-12T15:22:10;101226.00;;;36.62;21.82
53874;BME280;62246;50.938;4.058;2022-09-12T15:24:36;101225.25;;;31.55;28.46